Ride Results

Kundabung Macleay Endurance Pleasure Riders Club (01-07-2007)
Ride distance: 80.0 km

Outcomes - Kundabung Macleay Endurance Pleasure Riders Club (01-07-2007)
Division No. of Entries Retired / DNE Completed Withdrawn Ineligible V/O Percentage Completed
HW 9 - 7 1 - 1 77.78%
MW 10 - 9 - - 1 90.00%
LW 14 - 11 - 1 2 78.57%
JN 4 - 3 - - 1 75.00%
Totals 37 - 30 1 1 5 81.08%
Results - Kundabung Macleay Endurance Pleasure Riders Club (01-07-2007)
No. Rider Horse Place Time Leg Speeds Total
Km/Hr
H/R bpm
Heavyweight
897 Rex Cox Markus Zen Galaxy 1 5:18:00 15.0, 15.0 15.09 37, 48, 48 (Avg:48)
896 Charles Gauci Chazar Mystical Warrior 2 6:01:00 13.9, 12.6 13.30 37, 46, 58 (Avg:52)
893 Allan Caslick A'Landell Marli 3 7:15:00 10.7, 11.3 11.03 36, 44, 46 (Avg:45)
899 Graeme Burchell Zena 4 7:48:00 10.6, 9.8 10.26 42, 53, 48 (Avg:50)
898 Phil Coleman Alnotarj Statistic 5 7:49:00 10.2, 10.2 10.23 37, 52, 57 (Avg:54)
894 Terry McMurrrich Nihal City Extra 6 8:45:00 9.0, 9.1 9.14 38, 44, 60 (Avg:52)
895 Bruce Turner Banjo McGuire 7 8:58:00 9.2, 8.5 8.92 34, 40, 40 (Avg:40)
891 Ian Dreghorn Rufus Lame L2 0:00:00 10.3, 8.9 - 30, 51, 54 (Avg:52)
892 Gavin Bartlett Ginmara Nejmasal Withdrawn L1 0:00:00 - - 46, 48 (Avg:48)
Middleweight
855 Lindsay Hine Harmere Amira 1 5:07:00 15.1, 16.1 15.64 36, 40, 44 (Avg:42)
853 Peter Kelly Wollumbin Faiz 2 5:20:00 14.2, 15.9 15.00 32, 40, 40 (Avg:40)
854 Sam Gauci Tarabic Carl 3 5:56:00 13.9, 13.0 13.48 36, 44, 53 (Avg:48)
859 Marylou Locke Ally 4 6:08:00 13.4, 12.6 13.04 36, 42, 48 (Avg:45)
852 Robyn Hillier Marneross Maelaeki 5 6:57:00 12.2, 10.7 11.51 32, 39, 56 (Avg:47)
857 Phillip Howarth Yardin 5 6:57:00 11.3, 11.7 11.51 29, 36, 39 (Avg:37)
856 Sandi Brown Alandell Muskett 7 7:15:00 10.7, 11.3 11.03 27, 42, 57 (Avg:49)
851 Susan Pritchard Macquarie Park Dakota 8 7:33:00 11.3, 9.9 10.60 38, 42, 49 (Avg:45)
850 Karina Stewart Kie-Al Sirhan 9 7:47:00 10.2, 10.3 10.28 31, 37, 36 (Avg:36)
858 Brad Dillon Judstan Susannah Heart Rate L2 0:00:00 11.7, 14.3 - 38, 53, 66 (Avg:59)
Lightweight
835 Emily Streckfuss Webbs Creek Starlight 1 5:20:00 14.2, 15.9 15.00 31, 39, 53 (Avg:46)
828 Melanie Anderson Ausden Kon Tiki 2 6:13:00 13.1, 12.5 12.87 40, 46, 60 (Avg:53)
830 Kim Hagon Diamond R Boston 3 6:14:00 13.1, 12.4 12.83 40, 48, 58 (Avg:53)
826 Anne Hills Zemzem Zawinui 4 7:05:00 11.6, 10.9 11.29 32, 42, 50 (Avg:46)
834 Anita Rodgers McDonald Park Seduction 5 7:16:00 11.3, 10.7 11.01 34, 49, 44 (Avg:46)
839 Carol Layton Omani Mr Sqiggle 6 7:33:00 10.3, 10.8 10.60 32, 41, 47 (Avg:44)
827 Ros Ryan Cloudburst 7 7:49:00 10.2, 10.2 10.23 36, 47, 52 (Avg:49)
831 Abby McMurrich Fire Phoenix 8 8:15:00 9.0, 10.4 9.70 36, 46, 58 (Avg:52)
836 Jan Wade Oakey Dokey 8 8:15:00 9.5, 9.8 9.70 34, 44, 53 (Avg:48)
832 Emma McMurrich Simba 10 8:45:00 9.0, 9.1 9.14 28, 41, 45 (Avg:43)
837 Sue Todd PPP Kool Pashin 11 9:00:00 9.5, 8.2 8.89 33, 52, 55 (Avg:53)
838 Kathryn Cameron Glenian Park Golly Gosh Out of Time L2 0:00:00 8.0, 7.5 - 38, 42, 48 (Avg:45)
833 Laura Munt Murrahala Myall Lame L2 0:00:00 11.3, 10.7 - 36, 38, 45 (Avg:41)
825 Katrina Robinson Autumn Night Hazeem Lame L2 0:00:00 10.4, 11.5 - 44, 36, 36 (Avg:36)
Junior
802 Louise Wormell Ausden Monet 1 6:09:00 13.1, 12.8 13.01 33, 44, 54 (Avg:49)
803 Mia Bodewes Leshal Asrahk 2 6:14:00 11.7, 14.3 12.83 35, 46, 56 (Avg:51)
800 Allix Jones Shellal Cattle King Flyte 3 7:36:00 10.2, 10.8 10.53 35, 42, 48 (Avg:45)
801 Sophie Babic Celsar Rahil Lame L2 0:00:00 10.2, 10.8 - 40, 43, 49 (Avg:46)